• Join FlightAware (Why Join?)
  • Login
  • US Flag 
01:58PM EDT


 

Airport Tracker/Info


-or-


 

Live Flight TrackerFlight Track Log ✈ UAL4206 ✈ 19-Aug-2013 ✈ KIAH - KCVG

Flight Track Log - Related Links

Times and Time Zones

All times are in EDT time to prevent confusion due to time zone crossing. See the UAL4206 flight status page for this flight to view local times or setup timezone preferences in your user account.

Time Position Orientation Groundspeed Altitude Reporting Facility
EDT Latitude Longitude Course Direction KTS MPH feet Rate Location/Type
05:03PM 29.9803 -95.2931 12° North 162 186 800  Level Houston Center
05:04PM 30.0625 -95.2733 12° North 252 290 2,700 1,260 Climbing Houston Center
05:05PM 30.0981 -95.2725 North 243 280 3,600 1,740 Climbing Houston Center
05:06PM 30.1844 -95.2719 360° North 256 295 5,800 2,040 Climbing Houston Center
05:07PM 30.2594 -95.2822 353° North 267 307 7,900 1,980 Climbing Houston Center
05:08PM 30.3297 -95.2572 17° North 277 319 9,900 1,320 Climbing Houston Center
05:09PM 30.3986 -95.2075 32° Northeast 292 336 10,700 780 Climbing Houston Center
05:10PM 30.4931 -95.1425 31° Northeast 334 384 11,600 960 Climbing Houston Center
05:11PM 30.5750 -95.0850 31° Northeast 342 394 12,800 1,080 Climbing Houston Center
05:12PM 30.6594 -95.0314 29° Northeast 345 397 13,900 900 Climbing Houston Center
05:13PM 30.7453 -94.9781 28° Northeast 349 402 14,700 720 Climbing Houston Center
05:14PM 30.8339 -94.9231 28° Northeast 357 411 15,500 720 Climbing Houston Center
05:15PM 30.9239 -94.8664 28° Northeast 365 420 16,300 780 Climbing Houston Center
05:16PM 31.0333 -94.7983 28° Northeast 371 427 17,200 780 Climbing Houston Center
05:17PM 31.1236 -94.7411 28° Northeast 370 426 18,000 840 Climbing Houston Center
05:18PM 31.2094 -94.6819 31° Northeast 374 430 19,000 960 Climbing Houston Center
05:19PM 31.3153 -94.6111 30° Northeast 376 433 20,100 960 Climbing Houston Center
05:20PM 31.4053 -94.5497 30° Northeast 376 433 21,100 900 Climbing Houston Center
05:21PM 31.4947 -94.4878 31° Northeast 375 432 22,000 900 Climbing Houston Center
05:22PM 31.5850 -94.4250 31° Northeast 376 433 23,000 960 Climbing Houston Center
05:23PM 31.6739 -94.3628 31° Northeast 374 430 24,000 960 Climbing Houston Center
05:24PM 31.7628 -94.2978 32° Northeast 375 432 25,000 960 Climbing Houston Center
05:26PM 31.8492 -94.2122 40° Northeast 376 433 26,000 960 Climbing Houston Center
05:26PM 31.9083 -94.1586 38° Northeast 375 432 26,700 960 Climbing Fort Worth Center
05:27PM 31.9878 -94.0822 39° Northeast 375 432 27,700 960 Climbing Fort Worth Center
05:28PM 32.0692 -94.0033 39° Northeast 375 432 28,700 900 Climbing Fort Worth Center
05:29PM 32.1506 -93.9267 39° Northeast 370 426 29,600 900 Climbing Fort Worth Center
05:30PM 32.2275 -93.8403 44° Northeast 370 426 30,500 900 Climbing Fort Worth Center
05:31PM 32.3086 -93.7633 39° Northeast 375 432 31,500 960 Climbing Fort Worth Center
05:32PM 32.3897 -93.6814 40° Northeast 375 432 32,500 720 Climbing Fort Worth Center
05:33PM 32.4711 -93.6067 38° Northeast 375 432 33,000 480 Climbing Fort Worth Center
05:34PM 32.5561 -93.5217 40° Northeast 380 437 33,500 600 Climbing Fort Worth Center
05:35PM 32.6433 -93.4364 39° Northeast 385 443 34,200 600 Climbing Fort Worth Center
05:36PM 32.7303 -93.3511 40° Northeast 391 450 34,800 360 Climbing Fort Worth Center
05:37PM 32.8192 -93.2631 40° Northeast 397 457 35,000 60 Climbing Fort Worth Center
05:38PM 32.9103 -93.1747 39° Northeast 411 473 35,000  Level Fort Worth Center
05:39PM 33.0069 -93.0761 41° Northeast 425 489 35,000  Level Fort Worth Center
05:40PM 33.1039 -92.9822 39° Northeast 444 511 35,000  Level Fort Worth Center
05:41PM 33.2147 -92.8697 40° Northeast 463 533 35,000  Level Fort Worth Center
05:44PM 33.4336 -92.6547 39° Northeast 466 536 35,000  Level Memphis Center
05:45PM 33.5314 -92.5553 40° Northeast 466 536 35,000  Level Memphis Center
05:46PM 33.6314 -92.4553 40° Northeast 466 536 35,000  Level Memphis Center
05:47PM 33.7311 -92.3553 40° Northeast 466 536 35,000  Level Memphis Center
05:48PM 33.8308 -92.2553 40° Northeast 466 536 35,000  Level Memphis Center
05:49PM 33.9322 -92.1572 39° Northeast 461 531 35,000  Level Memphis Center
05:50PM 34.0297 -92.0539 41° Northeast 461 531 35,000  Level Memphis Center
05:51PM 34.1336 -91.9381 43° Northeast 461 531 35,000  Level Memphis Center
05:52PM 34.2328 -91.8369 40° Northeast 461 531 35,000  Level Memphis Center
05:53PM 34.3300 -91.7356 41° Northeast 466 536 35,000  Level Memphis Center
05:54PM 34.4228 -91.6439 39° Northeast 466 536 35,000  Level Memphis Center
05:55PM 34.5219 -91.5394 41° Northeast 466 536 35,000  Level Memphis Center
05:56PM 34.6294 -91.4272 41° Northeast 466 536 35,000  Level Memphis Center
05:57PM 34.7303 -91.3225 40° Northeast 466 536 35,000  Level Memphis Center
05:58PM 34.8292 -91.2172 41° Northeast 471 542 35,000  Level Memphis Center
05:59PM 34.9300 -91.1144 40° Northeast 465 535 35,000  Level Memphis Center
06:00PM 35.0264 -91.0114 41° Northeast 460 529 35,000  Level Memphis Center
06:01PM 35.1250 -90.9056 41° Northeast 460 529 35,000  Level Memphis Center
06:02PM 35.2214 -90.8044 41° Northeast 460 529 35,000  Level Memphis Center
06:03PM 35.3197 -90.6981 41° Northeast 467 537 35,000  Level Memphis Center
06:04PM 35.4075 -90.6042 41° Northeast 467 537 35,000  Level Memphis Center
06:05PM 35.5078 -90.4972 41° Northeast 467 537 35,000  Level Memphis Center
06:06PM 35.6061 -90.3903 41° Northeast 467 537 35,000  Level Memphis Center
06:07PM 35.7061 -90.2753 43° Northeast 456 525 35,000  Level Memphis Center
06:08PM 35.8039 -90.1675 42° Northeast 451 519 35,000  Level Memphis Center
06:09PM 35.9017 -90.0622 41° Northeast 456 525 35,000  Level Memphis Center
06:10PM 36.0017 -89.9517 42° Northeast 462 532 35,000  Level Memphis Center
06:11PM 36.0992 -89.8483 41° Northeast 467 537 35,000  Level Memphis Center
06:12PM 36.1986 -89.7397 41° Northeast 462 532 35,000  Level Memphis Center
06:13PM 36.2942 -89.6333 42° Northeast 462 532 35,000 -60 Level Memphis Center
06:14PM 36.3811 -89.5397 41° Northeast 462 532 34,900 -420 Descending Memphis Center
06:15PM 36.4803 -89.4303 42° Northeast 468 539 34,200 -720 Descending Memphis Center
06:16PM 36.5817 -89.3156 42° Northeast 478 550 33,500 -600 Descending Memphis Center
06:17PM 36.6786 -89.2056 42° Northeast 483 556 33,100 -300 Descending Memphis Center
06:18PM 36.7733 -89.0981 42° Northeast 472 543 33,000 -60 Descending Memphis Center
06:19PM 36.8703 -88.9928 41° Northeast 461 531 33,000  Level Memphis Center
06:20PM 36.9647 -88.8847 42° Northeast 461 531 33,000  Level Memphis Center
06:21PM 37.0633 -88.7736 42° Northeast 466 536 33,000 -480 Level Memphis Center
06:22PM 37.2381 -88.5656 43° Northeast 468 539 31,700 -720 Descending Indianapolis Center
06:23PM 37.3450 -88.4428 42° Northeast 468 539 31,000 -360 Descending Indianapolis Center
06:25PM 37.4414 -88.3306 43° Northeast 467 537 31,000  Level Indianapolis Center
06:26PM 37.5444 -88.2119 42° Northeast 465 535 31,000  Level Indianapolis Center
06:27PM 37.6325 -88.1075 43° Northeast 464 534 31,000  Level Indianapolis Center
06:28PM 37.7319 -87.9636 49° Northeast 467 537 31,000 -60 Level Indianapolis Center
06:29PM 37.7822 -87.8339 64° Northeast 465 535 30,900 -540 Descending Indianapolis Center
06:30PM 37.8381 -87.6881 64° Northeast 462 532 30,000 -1,020 Descending Indianapolis Center
06:31PM 37.9050 -87.5072 65° Northeast 471 542 28,900 -960 Descending Indianapolis Center
06:32PM 37.9625 -87.3578 64° Northeast 472 543 28,100 -780 Descending Indianapolis Center
06:33PM 38.0186 -87.2061 65° Northeast 477 549 27,400 -720 Descending Indianapolis Center
06:34PM 38.0736 -87.0569 65° Northeast 473 544 26,700 -720 Descending Indianapolis Center
06:35PM 38.1286 -86.9067 65° Northeast 476 548 26,000 -720 Descending Indianapolis Center
06:36PM 38.1961 -86.7264 64° Northeast 476 548 25,300 -660 Descending Indianapolis Center
06:37PM 38.2506 -86.5764 65° Northeast 472 543 24,700 -540 Descending Indianapolis Center
06:38PM 38.3064 -86.4256 65° Northeast 472 543 24,200 -540 Descending Indianapolis Center
06:39PM 38.3600 -86.2758 65° Northeast 465 535 23,600 -600 Descending Indianapolis Center
06:40PM 38.4133 -86.1294 65° Northeast 457 526 23,000 -960 Descending Indianapolis Center
06:41PM 38.4669 -85.9828 65° Northeast 457 526 21,700 -2,580 Descending Indianapolis Center
06:42PM 38.5264 -85.8125 66° East 439 505 17,700 -3,420 Descending Indianapolis Center
06:43PM 38.5733 -85.6814 65° Northeast 411 473 14,700 -2,580 Descending Indianapolis Center
06:44PM 38.6228 -85.5614 62° Northeast 386 444 12,400 -1,740 Descending Indianapolis Center
06:45PM 38.6786 -85.4414 59° Northeast 372 428 11,200 -720 Descending Indianapolis Center
06:46PM 38.7072 -85.3161 74° East 379 436 11,000 -300 Descending Indianapolis Center
06:47PM 38.7150 -85.1889 85° East 361 415 10,600 -840 Descending Indianapolis Center
06:48PM 38.7206 -85.0831 86° East 297 342 9,400 -1,140 Descending Indianapolis Center
06:49PM 38.7269 -84.9853 85° East 278 320 8,300 -1,320 Descending Indianapolis Center
06:50PM 38.7333 -84.8828 85° East 245 282 6,700 -1,500 Descending Indianapolis Center
06:51PM 38.7367 -84.7964 87° East 245 282 5,300 -1,020 Descending Indianapolis Center
06:52PM 38.7714 -84.7381 53° Northeast 239 275 4,700 -660 Descending Indianapolis Center
06:55PM 38.9167 -84.6833 16° North 232 267 3,100 -720 Descending Cincinnati TRACON
06:56PM 38.9667 -84.6833 360° North 211 243 2,400 -780 Descending Cincinnati TRACON
06:57PM 39.0167 -84.6833 360° North 132 152 1,600 -840 Descending Cincinnati TRACON